Aviation Digital Data Service (ADDS)

Output produced by METARs form (2148 UTC 17 November 2018)
found at http://www.aviationweather.gov/metar/data/
 
METAR text: EPWR 172130Z VRB01KT 6000 NSC M05/M06 Q1036
Conditions at: EPWR (WROCLAW/STRACHOW, PL) observed 2130 UTC 17 November 2018
Temperature: -5.0°C (23°F)
Dewpoint: -6.0°C (21°F) [RH = 93%]
Pressure (altimeter): 30.59 inches Hg (1036.0 mb)
Winds: variable direction winds at 1 MPH (1 knots; 0.5 m/s)
Visibility: 4 miles ( 6 km)
Ceiling: at least 12,000 feet AGL
Clouds: sky clear below 12,000 feet AGL
Weather: no significant weather observed at this time

METAR text: EPWR 172100Z VRB01KT 6000 NSC M05/M06 Q1036
Conditions at: EPWR (WROCLAW/STRACHOW, PL) observed 2100 UTC 17 November 2018
Temperature: -5.0°C (23°F)
Dewpoint: -6.0°C (21°F) [RH = 93%]
Pressure (altimeter): 30.59 inches Hg (1036.0 mb)
Winds: variable direction winds at 1 MPH (1 knots; 0.5 m/s)
Visibility: 4 miles ( 6 km)
Ceiling: at least 12,000 feet AGL
Clouds: sky clear below 12,000 feet AGL
Weather: no significant weather observed at this time

Forecast for: EPWR (WROCLAW/STRACHOW, PL)
Text: TAF EPWR 172030Z 1721/1821 VRB03KT 5000 BR NSC
Forecast period: 2100 UTC 17 November 2018 to 1400 UTC 18 November 2018
Forecast type: FROM: standard forecast or significant change
Winds: variable direction winds at 3 MPH (3 knots; 1.5 m/s)
Visibility: 3 miles (5 km)
Ceiling: unknown
Clouds: missing
Weather: BR  (mist)
Text: TEMPO 1721/1808 1500 BR BKN003
Forecast period: 2100 UTC 17 November 2018 to 0800 UTC 18 November 2018
Forecast type: TEMPORARY: The following changes expected for less than half the time period
Visibility: 0.93 miles (1.50 km)
Ceiling: 300 feet AGL
Clouds: broken clouds at 300 feet AGL
Weather: BR  (mist)
Text: PROB30 1800/1806 0600 FG
Forecast period: 0000 to 0600 UTC 18 November 2018
Forecast type: PROBABLE: 30 percent likelihood of the following during this time
Visibility: 0.37 miles (0.60 km)
Ceiling: unknown
Clouds: missing
Weather: FG  (fog)
Text: BECMG 1814/1816 33010KT 3000 -RA BKN013
Forecast period: 1400 to 2100 UTC 18 November 2018
Forecast type: BECOMING: Conditions expected to become as follows by 1600 UTC 18 November 2018
Winds: from the NNW (330 degrees) at 12 MPH (10 knots; 5.1 m/s)
Visibility: 1.86 miles (2.99 km)
Ceiling: 1300 feet AGL
Clouds: broken clouds at 1300 feet AGL
Weather: -RA  (light rain)
Text: TEMPO 1818/1821 1500 -RASN BKN005
Forecast period: 1800 to 2100 UTC 18 November 2018
Forecast type: TEMPORARY: The following changes expected for less than half the time period
Visibility: 0.93 miles (1.50 km)
Ceiling: 500 feet AGL
Clouds: broken clouds at 500 feet AGL
Weather: -RA -SN  (light rain, light snow)